Time,TemperatureF,DewpointF,PressureIn,WindDirection,WindDirectionDegrees,WindSpeedMPH,WindSpeedGustMPH,Humidity,HourlyPrecipIn,Conditions,Clouds,dailyrainin,SoftwareType,DateUTC
2013-08-12 00:06:00,63.1,58.0,25.43,SE,125,2.0,7.0,84,0.19,,,0.19,weatherlink.com 1.10,2013-08-12 06:06:00,
2013-08-12 00:21:00,62.4,58.0,25.43,ESE,117,1.0,2.0,86,0.19,,,0.19,weatherlink.com 1.10,2013-08-12 06:21:00,
2013-08-12 00:36:00,61.6,56.0,25.43,SW,221,4.0,4.0,83,0.19,,,0.19,weatherlink.com 1.10,2013-08-12 06:36:00,
2013-08-12 00:51:00,61.4,57.0,25.41,South,181,0.0,2.0,84,0.00,,,0.19,weatherlink.com 1.10,2013-08-12 06:51:00,
2013-08-12 01:06:00,60.2,57.0,25.41,SW,219,1.0,2.0,88,0.00,,,0.19,weatherlink.com 1.10,2013-08-12 07:06:00,
2013-08-12 01:21:00,60.1,55.0,25.41,NNW,343,1.0,3.0,84,0.00,,,0.19,weatherlink.com 1.10,2013-08-12 07:21:00,
2013-08-12 01:36:00,59.6,56.0,25.39,SW,233,0.0,3.0,89,0.00,,,0.19,weatherlink.com 1.10,2013-08-12 07:36:00,
2013-08-12 01:51:00,59.0,56.0,25.39,West,269,1.0,2.0,89,0.00,,,0.19,weatherlink.com 1.10,2013-08-12 07:51:00,
2013-08-12 02:06:00,59.0,55.0,25.39,WNW,285,1.0,2.0,87,0.00,,,0.19,weatherlink.com 1.10,2013-08-12 08:06:00,
2013-08-12 02:21:00,59.0,56.0,25.39,WSW,255,5.0,6.0,88,0.00,,,0.19,weatherlink.com 1.10,2013-08-12 08:21:00,
2013-08-12 02:36:00,59.1,56.0,25.39,WNW,285,2.0,5.0,90,0.00,,,0.19,weatherlink.com 1.10,2013-08-12 08:36:00,
2013-08-12 02:51:00,58.8,57.0,25.39,WNW,294,4.0,7.0,92,0.00,,,0.19,weatherlink.com 1.10,2013-08-12 08:51:00,
2013-08-12 03:06:00,58.4,56.0,25.39,WNW,282,3.0,7.0,92,0.00,,,0.19,weatherlink.com 1.10,2013-08-12 09:06:00,
2013-08-12 03:21:00,58.3,56.0,25.39,West,281,2.0,5.0,92,0.00,,,0.19,weatherlink.com 1.10,2013-08-12 09:21:00,
2013-08-12 03:36:00,58.8,56.0,25.38,WSW,240,3.0,4.0,91,0.00,,,0.19,weatherlink.com 1.10,2013-08-12 09:36:00,
2013-08-12 03:51:00,58.7,56.0,25.39,West,266,3.0,5.0,92,0.00,,,0.19,weatherlink.com 1.10,2013-08-12 09:51:00,
2013-08-12 04:06:00,58.4,56.0,25.39,SW,225,1.0,2.0,93,0.01,,,0.20,weatherlink.com 1.10,2013-08-12 10:06:00,
2013-08-12 04:21:00,58.6,56.0,25.39,SW,229,3.0,4.0,91,0.01,,,0.20,weatherlink.com 1.10,2013-08-12 10:21:00,
2013-08-12 04:36:00,58.5,56.0,25.39,SE,134,2.0,3.0,91,0.01,,,0.20,weatherlink.com 1.10,2013-08-12 10:36:00,
2013-08-12 05:32:00,-999.0,-99.9,0.00,North,-999,-999.0,-999.0,-999,0.00,,,0.00,weatherlink.com 1.10,2013-08-12 11:32:00,
2013-08-12 05:45:00,56.2,54.0,25.40,SSE,152,0.0,1.0,93,0.00,,,0.00,weatherlink.com 1.10,2013-08-12 11:45:00,
2013-08-12 06:00:00,56.1,54.0,25.40,SE,143,1.0,2.0,94,0.00,,,0.00,weatherlink.com 1.10,2013-08-12 12:00:00,
2013-08-12 06:15:00,56.3,55.0,25.40,WSW,242,1.0,2.0,94,0.00,,,0.00,weatherlink.com 1.10,2013-08-12 12:15:00,
2013-08-12 06:30:00,56.8,55.0,25.41,WSW,249,1.0,2.0,93,0.00,,,0.00,weatherlink.com 1.10,2013-08-12 12:30:00,
2013-08-12 06:45:00,57.7,55.0,25.41,WNW,287,1.0,3.0,90,0.00,,,0.00,weatherlink.com 1.10,2013-08-12 12:45:00,
2013-08-12 07:00:00,57.8,55.0,25.40,WNW,283,2.0,4.0,91,0.00,,,0.00,weatherlink.com 1.10,2013-08-12 13:00:00,
2013-08-12 07:15:00,58.3,56.0,25.41,WNW,290,2.0,4.0,91,0.00,,,0.00,weatherlink.com 1.10,2013-08-12 13:15:00,
2013-08-12 07:30:00,58.5,56.0,25.41,WNW,284,2.0,5.0,90,0.00,,,0.00,weatherlink.com 1.10,2013-08-12 13:30:00,
2013-08-12 07:45:00,59.6,56.0,25.41,West,278,2.0,6.0,89,0.00,,,0.00,weatherlink.com 1.10,2013-08-12 13:45:00,
2013-08-12 08:00:00,61.0,57.0,25.41,West,275,4.0,5.0,86,0.00,,,0.00,weatherlink.com 1.10,2013-08-12 14:00:00,
2013-08-12 08:20:00,-999.0,-99.9,0.00,North,-999,-999.0,-999.0,-999,0.00,,,0.00,weatherlink.com 1.10,2013-08-12 14:20:00,
2013-08-12 08:32:00,64.0,58.0,25.42,WNW,294,1.0,5.0,80,0.00,,,0.00,weatherlink.com 1.10,2013-08-12 14:32:00,
2013-08-12 08:47:00,67.1,59.0,25.41,NW,315,1.0,3.0,75,0.00,,,0.00,weatherlink.com 1.10,2013-08-12 14:47:00,
2013-08-12 09:02:00,69.7,60.0,25.41,West,274,0.0,2.0,72,0.00,,,0.00,weatherlink.com 1.10,2013-08-12 15:02:00,
2013-08-12 09:17:00,71.1,61.0,25.41,SSE,149,0.0,4.0,71,0.00,,,0.00,weatherlink.com 1.10,2013-08-12 15:17:00,
2013-08-12 09:32:00,73.5,60.0,25.41,SW,233,1.0,5.0,63,0.00,,,0.00,weatherlink.com 1.10,2013-08-12 15:32:00,
2013-08-12 09:47:00,74.9,60.0,25.41,ENE,58,3.0,4.0,61,0.00,,,0.00,weatherlink.com 1.10,2013-08-12 15:47:00,
2013-08-12 09:58:00,-999.0,-99.9,0.00,North,-999,-999.0,-999.0,-999,0.00,,,0.00,weatherlink.com 1.10,2013-08-12 15:58:00,
2013-08-12 10:10:00,76.6,60.0,25.41,NE,39,1.0,7.0,57,0.00,,,0.00,weatherlink.com 1.10,2013-08-12 16:10:00,
2013-08-12 10:25:00,77.8,58.0,25.41,SW,218,1.0,8.0,51,0.00,,,0.00,weatherlink.com 1.10,2013-08-12 16:25:00,
2013-08-12 10:40:00,79.2,58.0,25.42,East,101,1.0,6.0,48,0.00,,,0.00,weatherlink.com 1.10,2013-08-12 16:40:00,
2013-08-12 10:55:00,79.1,58.0,25.41,SSW,200,0.0,6.0,48,0.00,,,0.00,weatherlink.com 1.10,2013-08-12 16:55:00,
2013-08-12 11:10:00,78.8,58.0,25.41,East,101,0.0,8.0,49,0.00,,,0.00,weatherlink.com 1.10,2013-08-12 17:10:00,
2013-08-12 11:25:00,81.1,58.0,25.41,ESE,109,4.0,6.0,45,0.00,,,0.00,weatherlink.com 1.10,2013-08-12 17:25:00,
2013-08-12 11:40:00,82.2,57.0,25.41,NE,37,2.0,4.0,43,0.00,,,0.00,weatherlink.com 1.10,2013-08-12 17:40:00,
2013-08-12 11:55:00,81.1,56.0,25.41,WNW,294,1.0,6.0,43,0.00,,,0.00,weatherlink.com 1.10,2013-08-12 17:55:00,
2013-08-12 12:10:00,82.8,58.0,25.41,ENE,74,1.0,6.0,43,0.00,,,0.00,weatherlink.com 1.10,2013-08-12 18:10:00,
2013-08-12 12:25:00,82.7,59.0,25.41,ESE,111,5.0,10.0,44,0.00,,,0.00,weatherlink.com 1.10,2013-08-12 18:25:00,
2013-08-12 12:40:00,82.2,58.0,25.40,NE,41,4.0,5.0,44,0.00,,,0.00,weatherlink.com 1.10,2013-08-12 18:40:00,
2013-08-12 12:55:00,84.1,55.0,25.40,NE,44,5.0,9.0,37,0.00,,,0.00,weatherlink.com 1.10,2013-08-12 18:55:00,
2013-08-12 13:10:00,83.1,54.0,25.40,East,100,4.0,7.0,37,0.00,,,0.00,weatherlink.com 1.10,2013-08-12 19:10:00,
2013-08-12 13:25:00,84.3,55.0,25.39,ESE,109,6.0,6.0,37,0.00,,,0.00,weatherlink.com 1.10,2013-08-12 19:25:00,
2013-08-12 13:40:00,83.7,55.0,25.39,ESE,117,4.0,8.0,38,0.00,,,0.00,weatherlink.com 1.10,2013-08-12 19:40:00,
2013-08-12 13:55:00,83.1,55.0,25.38,SE,124,1.0,6.0,38,0.00,,,0.00,weatherlink.com 1.10,2013-08-12 19:55:00,
2013-08-12 14:10:00,83.0,55.0,25.38,ENE,69,2.0,11.0,38,0.00,,,0.00,weatherlink.com 1.10,2013-08-12 20:10:00,
2013-08-12 14:25:00,81.7,54.0,25.38,ENE,58,2.0,9.0,38,0.00,,,0.00,weatherlink.com 1.10,2013-08-12 20:25:00,
2013-08-12 14:41:00,82.7,54.0,25.37,East,98,3.0,11.0,37,0.00,,,0.00,weatherlink.com 1.10,2013-08-12 20:41:00,
2013-08-12 14:55:00,79.7,55.0,25.37,East,98,7.0,10.0,42,0.00,,,0.00,weatherlink.com 1.10,2013-08-12 20:55:00,
2013-08-12 15:11:00,78.4,55.0,25.37,ESE,107,4.0,10.0,45,0.00,,,0.00,weatherlink.com 1.10,2013-08-12 21:11:00,
2013-08-12 15:26:00,77.5,54.0,25.37,SSE,148,7.0,10.0,45,0.00,,,0.00,weatherlink.com 1.10,2013-08-12 21:26:00,
2013-08-12 15:41:00,76.3,56.0,25.37,SE,127,7.0,12.0,50,0.00,,,0.00,weatherlink.com 1.10,2013-08-12 21:41:00,
2013-08-12 15:56:00,75.2,58.0,25.37,SE,141,5.0,7.0,56,0.00,,,0.00,weatherlink.com 1.10,2013-08-12 21:56:00,
2013-08-12 16:11:00,74.8,58.0,25.37,SSE,147,3.0,6.0,56,0.00,,,0.00,weatherlink.com 1.10,2013-08-12 22:11:00,
2013-08-12 16:26:00,74.9,57.0,25.37,ESE,123,2.0,5.0,54,0.00,,,0.00,weatherlink.com 1.10,2013-08-12 22:26:00,
2013-08-12 16:41:00,74.8,57.0,25.37,ESE,114,2.0,7.0,54,0.00,,,0.00,weatherlink.com 1.10,2013-08-12 22:41:00,
2013-08-12 16:56:00,74.7,57.0,25.37,ENE,78,1.0,6.0,55,0.00,,,0.00,weatherlink.com 1.10,2013-08-12 22:56:00,
2013-08-12 17:11:00,74.6,57.0,25.37,ESE,104,0.0,3.0,55,0.00,,,0.00,weatherlink.com 1.10,2013-08-12 23:11:00,
2013-08-12 17:26:00,74.0,58.0,25.37,NNE,18,3.0,5.0,57,0.00,,,0.00,weatherlink.com 1.10,2013-08-12 23:26:00,
2013-08-12 17:41:00,73.2,58.0,25.40,WSW,252,3.0,6.0,59,0.00,,,0.00,weatherlink.com 1.10,2013-08-12 23:41:00,
2013-08-12 17:56:00,73.3,58.0,25.41,SSW,212,2.0,7.0,59,0.00,,,0.00,weatherlink.com 1.10,2013-08-12 23:56:00,
2013-08-12 18:11:00,71.5,44.0,25.41,East,99,5.0,13.0,37,0.00,,,0.00,weatherlink.com 1.10,2013-08-13 00:11:00,
2013-08-12 18:26:00,71.4,43.0,25.41,NW,305,3.0,10.0,36,0.02,,,0.02,weatherlink.com 1.10,2013-08-13 00:26:00,
2013-08-12 18:41:00,69.3,51.0,25.39,ESE,117,7.0,7.0,52,0.02,,,0.02,weatherlink.com 1.10,2013-08-13 00:41:00,
2013-08-12 18:56:00,70.4,47.0,25.38,SSW,207,8.0,11.0,44,0.02,,,0.02,weatherlink.com 1.10,2013-08-13 00:56:00,
2013-08-12 19:11:00,72.1,48.0,25.38,SSW,207,8.0,9.0,42,0.02,,,0.02,weatherlink.com 1.10,2013-08-13 01:11:00,
2013-08-12 19:26:00,72.4,48.0,25.38,SE,136,5.0,13.0,42,0.00,,,0.02,weatherlink.com 1.10,2013-08-13 01:26:00,
2013-08-12 19:41:00,71.5,48.0,25.38,SSW,204,14.0,16.0,43,0.00,,,0.02,weatherlink.com 1.10,2013-08-13 01:41:00,
2013-08-12 19:56:00,67.7,50.0,25.38,SW,218,6.0,17.0,54,0.00,,,0.02,weatherlink.com 1.10,2013-08-13 01:56:00,
2013-08-12 20:11:00,66.2,51.0,25.37,South,190,9.0,15.0,59,0.00,,,0.02,weatherlink.com 1.10,2013-08-13 02:11:00,
2013-08-12 20:26:00,65.4,51.0,25.38,SW,226,15.0,15.0,60,0.00,,,0.02,weatherlink.com 1.10,2013-08-13 02:26:00,
2013-08-12 20:41:00,65.4,52.0,25.39,South,190,11.0,19.0,62,0.00,,,0.02,weatherlink.com 1.10,2013-08-13 02:41:00,
2013-08-12 20:56:00,65.1,52.0,25.40,WSW,253,6.0,16.0,62,0.00,,,0.02,weatherlink.com 1.10,2013-08-13 02:56:00,
2013-08-12 21:11:00,64.9,51.0,25.40,SSW,207,6.0,14.0,62,0.00,,,0.02,weatherlink.com 1.10,2013-08-13 03:11:00,
2013-08-12 21:26:00,64.2,52.0,25.41,West,280,2.0,10.0,64,0.00,,,0.02,weatherlink.com 1.10,2013-08-13 03:26:00,
2013-08-12 21:41:00,62.6,52.0,25.42,WNW,301,3.0,6.0,69,0.00,,,0.02,weatherlink.com 1.10,2013-08-13 03:41:00,
2013-08-12 21:56:00,62.6,52.0,25.41,West,270,3.0,7.0,69,0.00,,,0.02,weatherlink.com 1.10,2013-08-13 03:56:00,
2013-08-12 22:11:00,62.1,52.0,25.41,WNW,285,6.0,11.0,70,0.00,,,0.02,weatherlink.com 1.10,2013-08-13 04:11:00,
2013-08-12 22:27:00,61.6,52.0,25.41,WNW,288,4.0,8.0,72,0.00,,,0.02,weatherlink.com 1.10,2013-08-13 04:27:00,
2013-08-12 22:42:00,61.1,52.0,25.41,WSW,247,6.0,11.0,73,0.00,,,0.02,weatherlink.com 1.10,2013-08-13 04:42:00,
2013-08-12 22:57:00,59.5,53.0,25.42,NW,304,7.0,8.0,78,0.00,,,0.02,weatherlink.com 1.10,2013-08-13 04:57:00,